Terminal Aerodrome Forecast
Issued by NWS Knoxville/Tri Cities, TN

Home | Current Version | Previous Version | Text Only | Print | Product List | Glossary On
Versions: 1 2 3 4 5 6 7 8 9 10 11 12 13 14 15 16 17 18 19 20 21 22 23 24 25 26 27 28 29 30 31 32 33 34
000
FTUS44 KMRX 211135
TAFTYS
TAF
KTYS 211135Z 2112/2212 VRB03KT P6SM SCT045 BKN250
     FM211500 23006KT P6SM BKN040
     FM220000 27004KT P6SM BKN035
     FM220600 36004KT P6SM SCT030 BKN250=

USA.gov is the U.S. government's official web portal to all federal, state and local government web resources and services.